Aviation Digital Data Service (ADDS)

Output produced by METARs form (2218 UTC 24 March 2019)
found at http://www.aviationweather.gov/metar/data/
 
SPHY 241700Z 2418/2518 01010KT 8000 SCT015 BKN050 TX16/2419Z TN03/2511Z 
     BECMG 2418/2423 00000KT 9999 SCT012 BKN070
       
TAF SPQU 241700Z 2418/2518 25010KT CAVOK TX21/2419Z TN10/2510Z 
     BECMG 2500/2502 04005KT 
     BECMG 2514/2516 25010KT
       
SPHO 241700Z 2418/2518 02007KT 9999 FEW015 BKN080 TX22/2420Z TN12/2511Z 
     TEMPO 2421/2423 FEW050TCU BKN100
       
SPJR 241700Z 2418/2518 18006KT 9999 SCT026 BKN043 TX20/2419Z TN12/2511Z 
     TEMPO 2419/2422 8000 RA SCT023 OVC040 
     FM251100 VRB02KT 6000 SCT020 BKN043
       
SPHI 241700Z 2418/2518 19018KT CAVOK TX30/2419Z TN20/2511Z 
     FM250200 18010KT 9999 SCT040 
     FM251500 17015KT CAVOK
       
TAF SPZO 241100Z 2412/2512 07002KT 9999 FEW025 SCT036 BKN080 TX21/2419Z
TN08/2511Z 
     BECMG 2414/2416 SCT043 BKN080 
     TEMPO 2419/2423 36010KT FEW040TCU SCT046 BKN080 
     BECMG 2503/2505 RA FEW036 SCT040 OVC070 
     BECMG 2509/2511 NSW FEW025 SCT036 BKN080
       
TAF COR SPQT 241700Z 2418/2518 VRB04KT 9999 BKN020 BKN100 TX32/2419Z TN23/2511Z 
     TEMPO 2418/2422 01015KT 4000 SHRA BKN015 FEW025TCU BKN070 
     BECMG 2422/2501 FEW015 BKN080 
     TEMPO 2508/2512 4000 BR BKN008 BKN080 
     BECMG 2513/2516 BKN015 BKN080
       
SPJL 241700Z 2418/2518 04006KT 9999 BKN020 TX19/2419Z TN04/2510Z 
     TEMPO 2421/2423 10010KT 
     FM250000 23005KT 9999 SCT020 BKN080 
     FM250700 VRB03KT 9999 SCT012 BKN080
       
SPSO 241700Z 2418/2518 28008KT CAVOK TX27/2419Z TN19/2511Z 
     BECMG 2419/2421 22018KT 
     BECMG 2502/2504 21006KT 
     TEMPO 2510/2512 4000 BR FU
       
SPCL 241700Z 2418/2518 02005KT 9999 BKN020 BKN080 TX31/2419Z TN23/2511Z 
     BECMG 2422/2424 SCT017 BKN070 
     TEMPO 2508/2512 8000 BKN012 BKN100 
     BECMG 2513/2516 BKN020 BKN080
       
SPTU 241700Z 2418/2518 14004KT 9999 BKN020 BKN100 TX31/2419Z TN22/2511Z 
     TEMPO 2419/2422 BKN015 FEW020TCU 
     BECMG 2501/2503 BKN010
       
SPTN 241700Z 2418/2518 22010KT CAVOK TX26/2419Z TN16/2510Z 
     FM250000 24003KT CAVOK 
     FM251700 22010KT CAVOK
       
SPYL 241700Z 2418/2518 21010KT CAVOK TX33/2419Z TN21/2511Z 
     FM251200 16008KT 9999 BKN040
       
SPST 241700Z 2418/2518 05006KT 9999 SCT020 BKN080 TX34/2419Z TN22/2511Z 
     TEMPO 2418/2421 SCT015 BKN050 
     FM250000 VRB02KT 9999 FEW025 SCT080 
     FM251200 00000KT 6000 SCT015 BKN070
       
SPRU 241700Z 2418/2518 17010KT 9999 SC060 TX23/2419Z TN19/2511Z 
     FM250400 13005KT 8000 BKN100 
     FM251400 16010KT CAVOK
       
TAF SPME 241700Z 2418/2518 33010KT 9999 SCT013 BKN017 TX32/2419Z TN23/2511Z 
     BECMG 2421/2423 27006KT BKN013 
     FM251200 VRB02KT 9999 FEW010 BKN015
       
SPMS 241700Z 2418/2518 29004KT 9999 SCT012 SCT100 TX31/2419Z TN24/2511Z 
     TEMPO 2420/2423 08010KT 4000 RADZ BKN015 FEW025TCU BKN070 
     TEMPO 2512/2514 4000 BR BKN010 OVC070